createdAt,value
2018-09-09T18:59:24.130Z,98703.38
2018-09-09T19:02:28.551Z,98699.13
2018-09-09T19:05:33.010Z,98708.39
2018-09-09T19:08:36.066Z,98706.70
2018-09-09T19:11:39.074Z,98718.34
2018-09-09T19:14:42.150Z,98715.77
2018-09-09T19:17:45.144Z,98720.78
2018-09-09T19:20:48.127Z,98723.34
2018-09-09T19:23:51.150Z,98721.75
2018-09-09T19:26:54.174Z,98726.95
2018-09-09T19:29:57.182Z,98724.06
2018-09-09T19:33:00.158Z,98724.50
2018-09-09T19:36:03.154Z,98725.61
2018-09-09T19:39:09.182Z,98720.78
2018-09-09T19:42:12.219Z,98725.97
2018-09-09T19:45:15.266Z,98734.08
2018-09-09T19:48:18.309Z,98731.46
2018-09-09T19:51:21.316Z,98731.23
2018-09-09T19:54:24.353Z,98735.48
2018-09-09T19:57:27.364Z,98739.30
2018-09-09T20:00:30.390Z,98747.93
2018-09-09T20:03:33.588Z,98746.20
2018-09-09T20:06:36.631Z,98742.73
2018-09-09T20:09:39.626Z,98744.84
2018-09-09T20:12:42.597Z,98748.23
2018-09-09T20:15:45.666Z,98754.06
2018-09-09T20:18:48.693Z,98754.92
2018-09-09T20:21:51.697Z,98758.45
2018-09-09T20:24:54.701Z,98759.70
2018-09-09T20:27:57.694Z,98757.75
2018-09-09T20:31:00.994Z,98756.85
2018-09-09T20:34:04.057Z,98759.86
2018-09-09T20:37:07.134Z,98764.63
2018-09-09T20:40:10.142Z,98762.42
2018-09-09T20:43:13.114Z,98769.01
2018-09-09T20:46:16.102Z,98771.48
2018-09-09T20:49:19.077Z,98768.36
2018-09-09T20:52:22.082Z,98771.02
2018-09-09T20:55:25.249Z,98769.86
2018-09-09T20:58:28.269Z,98779.96
2018-09-09T21:01:31.347Z,98776.94
2018-09-09T21:04:34.426Z,98774.73
2018-09-09T21:07:37.542Z,98782.50
2018-09-09T21:10:40.673Z,98784.64
2018-09-09T21:13:43.697Z,98784.64
2018-09-09T21:16:46.749Z,98785.36
2018-09-09T21:19:49.767Z,98784.58
2018-09-09T21:22:52.814Z,98782.41
2018-09-09T21:25:55.857Z,98793.05
2018-09-09T21:28:59.818Z,98795.66
2018-09-09T21:32:02.981Z,98790.23
2018-09-09T21:35:06.110Z,98792.17
2018-09-09T21:38:09.145Z,98791.42
2018-09-09T21:41:12.161Z,98790.44
2018-09-09T21:44:15.134Z,98787.36
2018-09-09T21:47:18.179Z,98788.50
2018-09-09T21:50:21.166Z,98789.83
2018-09-09T21:53:24.153Z,98790.33
2018-09-09T21:56:27.130Z,98791.69
2018-09-09T21:59:30.104Z,98782.64
2018-09-09T22:02:33.090Z,98780.81
2018-09-09T22:05:36.150Z,98785.38
2018-09-09T22:08:39.166Z,98788.73
2018-09-09T22:11:42.154Z,98790.14
2018-09-09T22:14:45.141Z,98791.77
2018-09-09T22:17:48.165Z,98789.95
2018-09-09T22:20:51.140Z,98790.73
2018-09-09T22:23:54.158Z,98787.55
2018-09-09T22:26:57.137Z,98793.34
2018-09-09T22:30:00.133Z,98792.42
2018-09-09T22:33:03.148Z,98782.15
2018-09-09T22:36:06.143Z,98790.88
2018-09-09T22:39:10.114Z,98802.59
2018-09-09T22:42:13.094Z,98795.88
2018-09-09T22:45:16.123Z,98791.83
2018-09-09T22:48:19.826Z,98793.36
2018-09-09T22:51:22.841Z,98784.48
2018-09-09T22:54:25.879Z,98783.77
2018-09-09T22:57:28.885Z,98782.23
2018-09-09T23:00:31.878Z,98784.38
2018-09-09T23:03:34.861Z,98776.83
2018-09-09T23:06:37.833Z,98784.30
2018-09-09T23:09:40.853Z,98779.94
2018-09-09T23:12:43.852Z,98784.70
2018-09-09T23:15:46.899Z,98782.73
2018-09-09T23:18:49.954Z,98782.73
2018-09-09T23:21:52.921Z,98785.45
2018-09-09T23:24:55.915Z,98791.95
2018-09-09T23:27:58.909Z,98785.77
2018-09-09T23:31:01.874Z,98786.36
2018-09-09T23:34:04.857Z,98780.14
2018-09-09T23:37:07.849Z,98777.02
2018-09-09T23:40:10.857Z,98775.80
2018-09-09T23:43:13.865Z,98774.16
2018-09-09T23:46:16.853Z,98773.33
2018-09-09T23:49:19.857Z,98773.12
2018-09-09T23:52:22.825Z,98769.66
2018-09-09T23:55:25.831Z,98767.00
2018-09-09T23:58:28.805Z,98771.11
